Accueil
METAR-TAF:

METAR-TAF

Aéroports :

Plate-forme pétrolière

P11-b, Pays-Bas

latitude: 52-21-36N, longitude: 3-20-30E, altitude: 24 m

Observation

Le bulletin a été fait il y a 30 minutes, à 07:25 UTC
Vent 19 kt de est/sud-est, variant entre nord-est et sud/sud-est
Température 6°C
Humidité 75%
Pression 1013 hPa
Visibilité 10 km ou plus
Quelques nuages à une hauteur de 1600 ft
Nuages épars à une hauteur de 2000 ft
Nuages fragmentés à une hauteur de 2300 ft

METAR: EHPG 210725Z AUTO 12019KT 040V150 9999 FEW016 SCT020 BKN023 06/02 Q1013 W///H///

Heure: 08:55 (07:55 UTC)


TAF: absent

Observations et prévisions météorologiques de plus de 4000 aéroports (messages METAR et TAF).

Les stations disponibles sont représentées par des disques jaunes et rouges sur la carte.

Passer la souris dessus pour voir le nom de la station.

Cliquer dessus pour voir les observations et prévisions météorologiques.

Pour changer de carte: cliquez sur les boutons verts avec une croix noire pour zoomer, sur le bouton vert avec un tiret pour effectuer un zoom arrière, ou sur les flèches vertes pour les cartes adjacentes.


METAR-TAF: